createdAt,value
2023-01-13T00:01:11.392Z,0.75
2023-01-13T00:03:39.800Z,3.33
2023-01-13T00:06:08.802Z,1.67
2023-01-13T00:08:36.974Z,1.55
2023-01-13T00:11:05.129Z,1.75
2023-01-13T00:13:35.490Z,0.88
2023-01-13T00:16:06.130Z,1.20
2023-01-13T00:18:34.422Z,1.35
2023-01-13T00:21:03.102Z,3.78
2023-01-13T00:23:34.077Z,1.00
2023-01-13T00:26:04.072Z,2.03
2023-01-13T00:28:32.383Z,0.43
2023-01-13T00:31:08.598Z,0.95
2023-01-13T00:33:37.520Z,0.77
2023-01-13T00:36:07.485Z,3.83
2023-01-13T00:38:37.909Z,1.73
2023-01-13T00:41:08.455Z,1.60
2023-01-13T00:43:36.912Z,2.03
2023-01-13T00:46:07.785Z,0.73
2023-01-13T00:48:36.308Z,0.43
2023-01-13T00:51:06.374Z,0.43
2023-01-13T00:53:36.253Z,2.42
2023-01-13T00:56:06.861Z,1.63
2023-01-13T00:58:36.402Z,2.22
2023-01-13T01:01:07.734Z,0.65
2023-01-13T01:03:36.832Z,2.45
2023-01-13T01:06:07.840Z,0.98
2023-01-13T01:08:36.444Z,1.23
2023-01-13T01:11:06.171Z,0.77
2023-01-13T01:13:34.384Z,1.33
2023-01-13T01:16:09.022Z,0.68
2023-01-13T01:18:38.375Z,0.75
2023-01-13T01:21:09.009Z,1.23
2023-01-13T01:23:38.343Z,1.20
2023-01-13T01:26:09.721Z,1.55
2023-01-13T01:28:38.020Z,2.88
2023-01-13T01:31:10.177Z,0.75
2023-01-13T01:33:38.395Z,1.35
2023-01-13T01:36:07.045Z,1.10
2023-01-13T01:38:35.214Z,1.42
2023-01-13T01:41:03.445Z,0.77
2023-01-13T01:44:02.521Z,2.05
2023-01-13T01:46:34.089Z,1.02
2023-01-13T01:49:08.535Z,1.90
2023-01-13T01:51:39.947Z,0.60
2023-01-13T01:54:10.980Z,0.57
2023-01-13T01:56:40.848Z,0.70
2023-01-13T01:59:09.190Z,1.25
2023-01-13T02:01:41.528Z,1.65
2023-01-13T02:04:14.921Z,1.90
2023-01-13T02:06:44.208Z,0.65
2023-01-13T02:09:13.570Z,0.65
2023-01-13T02:11:58.981Z,2.10
2023-01-13T02:14:30.217Z,1.20
2023-01-13T02:17:17.223Z,0.63
2023-01-13T02:20:26.446Z,2.00
2023-01-13T02:23:33.405Z,0.57
2023-01-13T02:26:20.617Z,1.88
2023-01-13T02:29:25.207Z,1.27
2023-01-13T02:32:00.992Z,1.00
2023-01-13T02:34:38.629Z,2.70
2023-01-13T02:37:12.712Z,1.17
2023-01-13T02:39:50.008Z,2.28
2023-01-13T02:42:53.596Z,0.30
2023-01-13T02:45:28.038Z,1.10
2023-01-13T02:48:00.183Z,1.70
2023-01-13T02:50:33.532Z,1.95
2023-01-13T02:53:06.600Z,1.77
2023-01-13T02:55:38.988Z,0.60
2023-01-13T02:58:10.453Z,1.60
2023-01-13T03:00:39.116Z,1.73
2023-01-13T03:03:08.677Z,0.85
2023-01-13T03:05:37.445Z,0.65
2023-01-13T03:08:28.218Z,0.63
2023-01-13T03:11:04.877Z,0.55
2023-01-13T03:13:57.617Z,0.75
2023-01-13T03:16:38.480Z,4.50
2023-01-13T03:19:17.078Z,0.47
2023-01-13T03:21:53.375Z,4.25
2023-01-13T03:24:26.775Z,0.28
2023-01-13T03:27:02.478Z,1.83
2023-01-13T03:29:36.289Z,0.35
2023-01-13T03:32:09.439Z,1.75
2023-01-13T03:34:45.962Z,0.60
2023-01-13T03:37:17.425Z,2.47
2023-01-13T03:39:48.931Z,0.52
2023-01-13T03:42:21.136Z,3.22
2023-01-13T03:44:54.933Z,1.13
2023-01-13T03:47:29.028Z,2.58
2023-01-13T03:50:05.487Z,2.10
2023-01-13T03:52:38.245Z,0.80
2023-01-13T03:55:10.965Z,2.78
2023-01-13T03:57:46.174Z,1.02
2023-01-13T04:00:15.655Z,0.90
2023-01-13T04:02:54.518Z,0.43
2023-01-13T04:05:24.731Z,0.50
2023-01-13T04:08:01.233Z,3.63
2023-01-13T04:10:32.548Z,0.93
2023-01-13T04:13:04.991Z,0.95
2023-01-13T04:15:36.205Z,1.65
2023-01-13T04:18:12.588Z,0.38
2023-01-13T04:20:43.512Z,1.48
2023-01-13T04:23:13.550Z,0.20
2023-01-13T04:25:42.061Z,0.25
2023-01-13T04:28:10.710Z,1.70
2023-01-13T04:30:39.352Z,1.90
2023-01-13T04:33:08.082Z,2.70
2023-01-13T04:35:36.991Z,3.92
2023-01-13T04:38:08.192Z,3.20
2023-01-13T04:40:36.560Z,6.45
2023-01-13T04:43:05.459Z,6.95
2023-01-13T04:45:33.906Z,3.72
2023-01-13T04:48:02.194Z,3.80
2023-01-13T04:50:30.774Z,3.15
2023-01-13T04:53:00.444Z,2.05
2023-01-13T04:55:31.778Z,2.70
2023-01-13T04:58:04.164Z,4.25
2023-01-13T05:00:32.334Z,5.15
2023-01-13T05:03:00.624Z,11.63
2023-01-13T05:05:29.438Z,5.60
2023-01-13T05:07:57.969Z,4.30
2023-01-13T05:10:26.435Z,6.68
2023-01-13T05:13:13.103Z,3.28
2023-01-13T05:15:59.105Z,1.77
2023-01-13T05:18:28.201Z,2.83
2023-01-13T05:20:56.431Z,3.60
2023-01-13T05:23:41.828Z,2.72
2023-01-13T05:26:10.079Z,2.25
2023-01-13T05:28:39.619Z,3.28
2023-01-13T05:31:08.005Z,0.88
2023-01-13T05:33:36.765Z,2.75
2023-01-13T05:36:05.871Z,2.95
2023-01-13T05:38:34.033Z,2.05
2023-01-13T05:41:19.716Z,2.72
2023-01-13T05:43:49.214Z,10.40
2023-01-13T05:46:17.781Z,13.15
2023-01-13T05:48:46.043Z,5.28
2023-01-13T05:51:14.897Z,1.73
2023-01-13T05:53:43.089Z,3.28
2023-01-13T05:56:11.969Z,1.20
2023-01-13T05:58:40.321Z,1.00
2023-01-13T06:01:10.805Z,3.22
2023-01-13T06:03:39.415Z,1.88
2023-01-13T06:06:09.071Z,1.30
2023-01-13T06:08:39.577Z,1.40
2023-01-13T06:11:08.288Z,2.00
2023-01-13T06:13:36.484Z,1.20
2023-01-13T06:16:04.895Z,3.20
2023-01-13T06:18:34.454Z,1.67
2023-01-13T06:21:02.581Z,1.02
2023-01-13T06:23:35.000Z,1.13
2023-01-13T06:26:09.408Z,0.95
2023-01-13T06:28:37.583Z,1.95
2023-01-13T06:31:08.228Z,1.33
2023-01-13T06:33:40.205Z,1.25
2023-01-13T06:38:42.788Z,1.05
2023-01-13T06:41:11.049Z,2.83
2023-01-13T06:43:39.146Z,2.20
2023-01-13T06:46:07.541Z,2.40
2023-01-13T06:48:37.565Z,1.05
2023-01-13T06:51:06.529Z,3.25
2023-01-13T06:53:34.671Z,1.33
2023-01-13T06:56:02.829Z,2.58
2023-01-13T06:58:31.000Z,1.85
2023-01-13T07:01:01.837Z,5.05
2023-01-13T07:03:30.090Z,3.83
2023-01-13T07:06:00.461Z,1.95
2023-01-13T07:08:28.653Z,0.75
2023-01-13T07:10:56.777Z,2.35
2023-01-13T07:13:42.871Z,3.42
2023-01-13T07:16:11.116Z,2.90
2023-01-13T07:18:39.676Z,0.57
2023-01-13T07:21:10.548Z,3.00
2023-01-13T07:23:40.637Z,4.10
2023-01-13T07:26:10.303Z,2.38
2023-01-13T07:28:39.230Z,4.38
2023-01-13T07:31:14.411Z,2.20
2023-01-13T07:33:42.614Z,1.60
2023-01-13T07:36:12.519Z,3.13
2023-01-13T07:38:41.097Z,4.45
2023-01-13T07:41:26.589Z,2.50
2023-01-13T07:43:54.726Z,3.50
2023-01-13T07:46:22.842Z,2.08
2023-01-13T07:48:51.030Z,2.17
2023-01-13T07:51:20.575Z,2.40
2023-01-13T07:53:48.985Z,2.05
2023-01-13T07:56:17.513Z,1.42
2023-01-13T07:58:50.318Z,1.65
2023-01-13T08:01:19.700Z,3.10
2023-01-13T08:03:47.977Z,1.08
2023-01-13T08:06:16.160Z,2.75
2023-01-13T08:08:45.742Z,2.85
2023-01-13T08:11:13.897Z,3.08
2023-01-13T08:13:42.144Z,2.47
2023-01-13T08:16:12.674Z,3.05
2023-01-13T08:18:41.459Z,3.60
2023-01-13T08:21:11.225Z,5.80
2023-01-13T08:23:39.976Z,4.82
2023-01-13T08:26:11.569Z,3.25
2023-01-13T08:28:41.370Z,3.00
2023-01-13T08:31:12.625Z,6.18
2023-01-13T08:33:41.377Z,4.78
2023-01-13T08:36:12.399Z,2.33
2023-01-13T08:38:41.641Z,5.03
2023-01-13T08:41:12.638Z,6.30
2023-01-13T08:43:40.877Z,4.47
2023-01-13T08:46:09.316Z,5.70
2023-01-13T08:48:37.608Z,3.20
2023-01-13T08:51:07.545Z,11.93
2023-01-13T08:53:35.751Z,5.35
2023-01-13T08:56:10.894Z,4.07
2023-01-13T08:58:40.967Z,3.63
2023-01-13T09:01:10.172Z,1.25
2023-01-13T09:03:39.134Z,3.80
2023-01-13T09:06:07.718Z,5.60
2023-01-13T09:08:35.982Z,3.13
2023-01-13T09:11:24.217Z,4.30
2023-01-13T09:13:52.797Z,2.80
2023-01-13T09:16:20.986Z,1.38
2023-01-13T09:18:49.296Z,3.50
2023-01-13T09:21:19.789Z,4.15
2023-01-13T09:23:48.164Z,4.05
2023-01-13T09:26:21.257Z,4.15
2023-01-13T09:28:49.537Z,4.55
2023-01-13T09:31:19.173Z,2.20
2023-01-13T09:34:05.036Z,1.60
2023-01-13T09:36:33.239Z,3.47
2023-01-13T09:39:01.397Z,3.05
2023-01-13T09:41:48.995Z,2.33
2023-01-13T09:44:20.832Z,3.95
2023-01-13T09:46:54.562Z,3.22
2023-01-13T09:49:25.998Z,4.35
2023-01-13T09:51:59.589Z,2.67
2023-01-13T09:54:34.889Z,4.13
2023-01-13T09:57:03.127Z,3.75
2023-01-13T09:59:36.482Z,3.30
2023-01-13T10:02:24.305Z,3.33
2023-01-13T10:05:13.512Z,3.72
2023-01-13T10:07:49.271Z,3.38
2023-01-13T10:10:31.699Z,5.22
2023-01-13T10:13:17.239Z,3.85
2023-01-13T10:16:04.008Z,4.93
2023-01-13T10:18:44.645Z,3.97
2023-01-13T10:21:26.371Z,6.00
2023-01-13T10:24:02.938Z,3.92
2023-01-13T10:26:45.526Z,6.43
2023-01-13T10:29:21.797Z,4.90
2023-01-13T10:31:49.921Z,6.57
2023-01-13T10:34:20.572Z,6.97
2023-01-13T10:37:06.226Z,4.82
2023-01-13T10:39:42.791Z,7.97
2023-01-13T10:42:15.100Z,5.93
2023-01-13T10:44:51.255Z,7.95
2023-01-13T10:47:26.029Z,4.90
2023-01-13T10:50:17.899Z,5.50
2023-01-13T10:52:59.095Z,3.00
2023-01-13T10:55:30.325Z,6.07
2023-01-13T10:57:58.779Z,6.63
2023-01-13T11:00:32.763Z,8.13
2023-01-13T11:03:18.761Z,8.18
2023-01-13T11:05:53.683Z,5.97
2023-01-13T11:08:24.163Z,6.53
2023-01-13T11:10:55.011Z,5.80
2023-01-13T11:13:29.470Z,5.45
2023-01-13T11:16:02.798Z,5.82
2023-01-13T11:18:41.593Z,7.10
2023-01-13T11:21:18.544Z,6.57
2023-01-13T11:23:51.514Z,6.63
2023-01-13T11:26:24.967Z,3.30
2023-01-13T11:29:01.998Z,5.10
2023-01-13T11:31:35.678Z,7.03
2023-01-13T11:34:12.583Z,3.92
2023-01-13T11:36:46.923Z,5.72
2023-01-13T11:39:22.311Z,7.15
2023-01-13T11:42:11.216Z,4.90
2023-01-13T11:44:44.585Z,6.60
2023-01-13T11:47:14.438Z,4.18
2023-01-13T11:49:48.544Z,6.50
2023-01-13T11:52:24.509Z,3.83
2023-01-13T11:55:24.378Z,5.57
2023-01-13T11:58:29.059Z,6.40
2023-01-13T12:01:10.137Z,8.57
2023-01-13T12:03:42.523Z,6.60
2023-01-13T12:06:20.980Z,6.65
2023-01-13T12:09:17.259Z,4.53
2023-01-13T12:12:15.045Z,8.13
2023-01-13T12:14:57.371Z,5.60
2023-01-13T12:17:32.507Z,7.93
2023-01-13T12:20:15.852Z,9.70
2023-01-13T12:22:47.313Z,6.88
2023-01-13T12:25:22.582Z,7.32
2023-01-13T12:27:59.373Z,5.10
2023-01-13T12:30:37.052Z,8.13
2023-01-13T12:33:18.762Z,8.90
2023-01-13T12:35:55.876Z,11.13
2023-01-13T12:38:34.498Z,5.47
2023-01-13T12:41:13.960Z,7.35
2023-01-13T12:44:13.258Z,11.02
2023-01-13T12:46:53.422Z,7.18
2023-01-13T12:49:24.152Z,5.68
2023-01-13T12:52:23.367Z,9.48
2023-01-13T12:55:25.197Z,9.73
2023-01-13T12:58:16.396Z,6.70
2023-01-13T13:01:11.740Z,3.63
2023-01-13T13:03:40.226Z,11.63
2023-01-13T13:06:14.981Z,8.50
2023-01-13T13:08:53.912Z,8.27
2023-01-13T13:11:52.636Z,6.40
2023-01-13T13:14:54.148Z,5.65
2023-01-13T13:17:45.963Z,5.67
2023-01-13T13:20:55.060Z,5.20
2023-01-13T13:23:47.947Z,6.75
2023-01-13T13:26:40.035Z,4.82
2023-01-13T13:29:24.285Z,9.23
2023-01-13T13:32:22.623Z,6.57
2023-01-13T13:35:02.315Z,7.93
2023-01-13T13:37:56.367Z,10.32
2023-01-13T13:40:42.930Z,6.47
2023-01-13T13:43:32.369Z,6.68
2023-01-13T13:46:18.028Z,4.72
2023-01-13T13:48:53.930Z,7.18
2023-01-13T13:51:28.294Z,6.07
2023-01-13T13:53:59.323Z,8.00
2023-01-13T13:56:30.327Z,4.10
2023-01-13T13:58:58.544Z,4.63
2023-01-13T14:01:30.196Z,8.68
2023-01-13T14:04:07.994Z,3.60
2023-01-13T14:06:37.591Z,6.82
2023-01-13T14:09:05.702Z,9.48
2023-01-13T14:11:36.066Z,8.45
2023-01-13T14:14:06.150Z,6.15
2023-01-13T14:16:36.405Z,4.75
2023-01-13T14:19:05.170Z,4.30
2023-01-13T14:21:33.895Z,6.63
2023-01-13T14:24:12.989Z,5.25
2023-01-13T14:26:41.397Z,6.35
2023-01-13T14:29:18.025Z,8.10
2023-01-13T14:31:47.754Z,4.43
2023-01-13T14:34:32.279Z,11.05
2023-01-13T14:37:01.368Z,6.65
2023-01-13T14:39:38.977Z,5.82
2023-01-13T14:42:14.271Z,6.55
2023-01-13T14:44:46.816Z,5.03
2023-01-13T14:47:22.968Z,2.45
2023-01-13T14:50:02.576Z,6.63
2023-01-13T14:52:32.587Z,3.97
2023-01-13T14:55:29.065Z,4.43
2023-01-13T14:58:18.738Z,3.80
2023-01-13T15:00:47.132Z,3.67
2023-01-13T15:03:16.910Z,5.38
2023-01-13T15:05:50.655Z,3.63
2023-01-13T15:08:38.640Z,7.07
2023-01-13T15:11:19.318Z,4.75
2023-01-13T15:13:53.585Z,5.55
2023-01-13T15:16:24.964Z,5.65
2023-01-13T15:18:53.823Z,2.58
2023-01-13T15:21:23.160Z,3.70
2023-01-13T15:23:51.462Z,6.30
2023-01-13T15:26:24.148Z,7.25
2023-01-13T15:28:53.497Z,8.15
2023-01-13T15:31:22.703Z,5.47
2023-01-13T15:33:51.155Z,8.77
2023-01-13T15:36:23.957Z,6.53
2023-01-13T15:38:52.253Z,4.82
2023-01-13T15:41:42.901Z,4.50
2023-01-13T15:44:32.997Z,5.13
2023-01-13T15:47:04.122Z,5.45
2023-01-13T15:49:36.331Z,4.83
2023-01-13T15:52:05.870Z,7.25
2023-01-13T15:54:34.021Z,7.63
2023-01-13T15:57:03.653Z,6.18
2023-01-13T15:59:31.781Z,4.70
2023-01-13T16:01:59.951Z,3.85
2023-01-13T16:04:28.086Z,3.08
2023-01-13T16:06:56.375Z,4.63
2023-01-13T16:09:24.517Z,4.60
2023-01-13T16:11:52.741Z,4.28
2023-01-13T16:14:22.308Z,6.90
2023-01-13T16:16:51.762Z,6.10
2023-01-13T16:19:19.910Z,8.80
2023-01-13T16:21:48.066Z,9.23
2023-01-13T16:24:16.221Z,9.05
2023-01-13T16:26:44.453Z,11.75
2023-01-13T16:29:13.057Z,13.20
2023-01-13T16:31:42.676Z,5.07
2023-01-13T16:34:10.858Z,11.75
2023-01-13T16:36:39.078Z,6.28
2023-01-13T16:39:20.631Z,6.30
2023-01-13T16:41:48.956Z,3.38
2023-01-13T16:44:17.168Z,3.40
2023-01-13T16:46:47.686Z,2.90
2023-01-13T16:49:17.171Z,4.47
2023-01-13T16:51:45.368Z,2.63
2023-01-13T16:54:13.534Z,2.85
2023-01-13T16:56:41.863Z,3.95
2023-01-13T16:59:13.625Z,6.03
2023-01-13T17:01:44.991Z,7.07
2023-01-13T17:04:18.614Z,3.83
2023-01-13T17:06:53.375Z,4.25
2023-01-13T17:09:23.578Z,5.97
2023-01-13T17:11:52.703Z,7.82
2023-01-13T17:14:23.281Z,2.80
2023-01-13T17:16:53.409Z,5.20
2023-01-13T17:19:25.613Z,3.33
2023-01-13T17:21:53.874Z,6.88
2023-01-13T17:24:24.746Z,6.57
2023-01-13T17:26:52.989Z,6.38
2023-01-13T17:29:22.965Z,6.43
2023-01-13T17:31:51.713Z,5.75
2023-01-13T17:34:21.330Z,8.00
2023-01-13T17:36:51.286Z,7.00
2023-01-13T17:39:21.061Z,5.82
2023-01-13T17:41:50.499Z,7.63
2023-01-13T17:44:20.465Z,5.43
2023-01-13T17:46:49.787Z,7.70
2023-01-13T17:49:21.752Z,9.73
2023-01-13T17:54:20.399Z,6.70
2023-01-13T17:56:48.635Z,8.77
2023-01-13T17:59:18.475Z,6.22
2023-01-13T18:01:47.298Z,8.40
2023-01-13T18:04:16.525Z,7.68
2023-01-13T18:06:45.040Z,7.32
2023-01-13T18:09:14.648Z,5.90
2023-01-13T18:11:43.459Z,7.32
2023-01-13T18:14:12.374Z,9.15
2023-01-13T18:16:40.765Z,6.80
2023-01-13T18:19:26.658Z,3.90
2023-01-13T18:22:12.289Z,8.70
2023-01-13T18:24:59.407Z,5.88
2023-01-13T18:27:31.071Z,7.90
2023-01-13T18:30:00.852Z,7.63
2023-01-13T18:32:33.179Z,7.38
2023-01-13T18:35:06.403Z,8.95
2023-01-13T18:37:38.787Z,5.38
2023-01-13T18:40:10.923Z,6.65
2023-01-13T18:42:54.971Z,6.60
2023-01-13T18:45:25.533Z,6.97
2023-01-13T18:47:55.206Z,5.35
2023-01-13T18:50:23.686Z,6.93
2023-01-13T18:52:52.420Z,9.15
2023-01-13T18:55:22.403Z,9.32
2023-01-13T18:57:51.231Z,7.13
2023-01-13T19:00:21.591Z,6.45
2023-01-13T19:05:35.855Z,8.65
2023-01-13T19:08:04.670Z,5.63
2023-01-13T19:10:34.300Z,7.30
2023-01-13T19:13:02.703Z,6.30
2023-01-13T19:15:31.282Z,7.80
2023-01-13T19:17:59.533Z,9.95
2023-01-13T19:20:27.707Z,9.95
2023-01-13T19:22:55.857Z,7.72
2023-01-13T19:25:24.064Z,6.38
2023-01-13T19:27:53.598Z,21.02
2023-01-13T19:30:21.844Z,30.42
2023-01-13T19:32:50.018Z,15.40
2023-01-13T19:35:19.939Z,14.05
2023-01-13T19:37:48.140Z,9.98
2023-01-13T19:40:16.780Z,10.25
2023-01-13T19:43:02.515Z,10.15
2023-01-13T19:45:35.108Z,9.60
2023-01-13T19:48:05.441Z,12.38
2023-01-13T19:50:38.509Z,9.65
2023-01-13T19:53:06.806Z,7.85
2023-01-13T19:55:35.135Z,8.63
2023-01-13T19:58:03.873Z,12.98
2023-01-13T20:00:34.296Z,10.52
2023-01-13T20:03:06.972Z,6.30
2023-01-13T20:05:35.195Z,11.23
2023-01-13T20:08:03.350Z,12.07
2023-01-13T20:10:31.548Z,15.95
2023-01-13T20:12:59.732Z,9.68
2023-01-13T20:15:27.985Z,8.20
2023-01-13T20:17:58.683Z,8.45
2023-01-13T20:20:27.463Z,7.50
2023-01-13T20:22:55.686Z,12.15
2023-01-13T20:25:23.925Z,11.10
2023-01-13T20:27:52.913Z,11.75
2023-01-13T20:30:21.233Z,7.43
2023-01-13T20:32:49.622Z,9.23
2023-01-13T20:35:19.340Z,5.68
2023-01-13T20:37:47.479Z,9.80
2023-01-13T20:40:18.383Z,7.30
2023-01-13T20:42:46.435Z,7.88
2023-01-13T20:45:17.561Z,4.43
2023-01-13T20:47:46.447Z,6.07
2023-01-13T20:50:15.029Z,6.70
2023-01-13T20:52:44.631Z,7.55
2023-01-13T20:55:13.469Z,8.95
2023-01-13T20:57:41.820Z,8.07
2023-01-13T21:00:11.607Z,8.00
2023-01-13T21:02:41.707Z,7.93
2023-01-13T21:05:10.196Z,10.02
2023-01-13T21:07:38.383Z,8.55
2023-01-13T21:10:11.315Z,7.50
2023-01-13T21:12:57.282Z,7.25
2023-01-13T21:15:25.889Z,7.57
2023-01-13T21:18:11.324Z,7.13
2023-01-13T21:20:40.250Z,5.43
2023-01-13T21:23:10.712Z,8.32
2023-01-13T21:25:40.619Z,5.70
2023-01-13T21:28:11.901Z,6.07
2023-01-13T21:30:40.782Z,3.72
2023-01-13T21:33:09.310Z,5.13
2023-01-13T21:35:39.574Z,7.32
2023-01-13T21:38:07.834Z,6.50
2023-01-13T21:40:35.985Z,6.60
2023-01-13T21:43:23.103Z,4.38
2023-01-13T21:46:07.895Z,11.30
2023-01-13T21:48:36.066Z,5.82
2023-01-13T21:51:04.241Z,8.00
2023-01-13T21:53:32.477Z,7.95
2023-01-13T21:56:00.630Z,7.35
2023-01-13T21:58:30.186Z,8.05
2023-01-13T22:01:03.944Z,9.52
2023-01-13T22:03:52.907Z,8.20
2023-01-13T22:06:21.177Z,8.18
2023-01-13T22:08:49.281Z,9.60
2023-01-13T22:11:17.560Z,6.93
2023-01-13T22:14:04.553Z,7.80
2023-01-13T22:16:33.987Z,5.50
2023-01-13T22:19:02.189Z,8.10
2023-01-13T22:21:30.480Z,7.13
2023-01-13T22:23:59.268Z,4.15
2023-01-13T22:26:27.715Z,5.95
2023-01-13T22:28:57.305Z,5.15
2023-01-13T22:31:26.223Z,6.65
2023-01-13T22:33:55.089Z,5.55
2023-01-13T22:36:23.997Z,5.18
2023-01-13T22:38:55.748Z,7.20
2023-01-13T22:41:24.816Z,3.83
2023-01-13T22:43:57.394Z,5.20
2023-01-13T22:46:26.992Z,5.45
2023-01-13T22:48:55.921Z,4.70
2023-01-13T22:51:25.155Z,7.22
2023-01-13T22:53:53.404Z,7.07
2023-01-13T22:56:22.841Z,5.82
2023-01-13T22:58:54.696Z,5.10
2023-01-13T23:01:23.046Z,8.20
2023-01-13T23:03:52.680Z,3.47
2023-01-13T23:06:22.353Z,6.38
2023-01-13T23:08:51.074Z,8.98
2023-01-13T23:11:20.866Z,8.95
2023-01-13T23:13:49.061Z,7.78
2023-01-13T23:16:19.499Z,7.05
2023-01-13T23:18:48.696Z,6.97
2023-01-13T23:21:19.677Z,3.95
2023-01-13T23:23:48.357Z,8.20
2023-01-13T23:26:17.574Z,6.13
2023-01-13T23:28:46.047Z,8.65
2023-01-13T23:31:16.559Z,4.30
2023-01-13T23:33:45.238Z,6.72
2023-01-13T23:36:15.606Z,8.98
2023-01-13T23:38:45.604Z,6.65
2023-01-13T23:41:19.634Z,6.32
2023-01-13T23:43:52.613Z,7.40
2023-01-13T23:46:22.124Z,7.35
2023-01-13T23:48:51.023Z,3.50
2023-01-13T23:51:21.234Z,8.13
2023-01-13T23:53:51.728Z,8.48
2023-01-13T23:56:22.531Z,7.07
2023-01-13T23:58:51.012Z,7.32
